sensor_id;sensor_type;location;lat;lon;timestamp;pressure;altitude;pressure_sealevel;temperature;humidity
72308;BME280;60257;42.638;23.376;2022-10-31T00:02:10;95039.00;;;13.99;50.67
72308;BME280;60257;42.638;23.376;2022-10-31T00:04:36;95028.34;;;13.98;50.33
72308;BME280;60257;42.638;23.376;2022-10-31T00:07:01;95030.22;;;13.94;50.58
72308;BME280;60257;42.638;23.376;2022-10-31T00:09:27;95018.47;;;13.97;50.62
72308;BME280;60257;42.638;23.376;2022-10-31T00:11:52;95034.31;;;14.00;50.85
72308;BME280;60257;42.638;23.376;2022-10-31T00:14:17;95033.06;;;13.97;50.51
72308;BME280;60257;42.638;23.376;2022-10-31T00:16:43;95027.03;;;13.92;51.05
72308;BME280;60257;42.638;23.376;2022-10-31T00:19:09;95016.63;;;13.85;51.05
72308;BME280;60257;42.638;23.376;2022-10-31T00:21:35;95034.69;;;13.82;51.28
72308;BME280;60257;42.638;23.376;2022-10-31T00:24:01;95027.75;;;13.73;51.59
72308;BME280;60257;42.638;23.376;2022-10-31T00:26:27;95014.63;;;13.66;51.82
72308;BME280;60257;42.638;23.376;2022-10-31T00:28:53;95028.91;;;13.72;51.71
72308;BME280;60257;42.638;23.376;2022-10-31T00:31:19;95038.78;;;13.73;51.67
72308;BME280;60257;42.638;23.376;2022-10-31T00:33:44;95027.84;;;13.76;51.79
72308;BME280;60257;42.638;23.376;2022-10-31T00:36:14;95036.84;;;13.73;51.87
72308;BME280;60257;42.638;23.376;2022-10-31T00:38:41;95030.16;;;13.74;51.84
72308;BME280;60257;42.638;23.376;2022-10-31T00:41:07;95023.84;;;13.74;52.16
72308;BME280;60257;42.638;23.376;2022-10-31T00:43:33;95026.16;;;13.72;51.85
72308;BME280;60257;42.638;23.376;2022-10-31T00:45:58;95028.69;;;13.61;52.39
72308;BME280;60257;42.638;23.376;2022-10-31T00:48:24;95026.63;;;13.58;52.67
72308;BME280;60257;42.638;23.376;2022-10-31T00:50:49;95026.34;;;13.47;53.23
72308;BME280;60257;42.638;23.376;2022-10-31T00:53:15;95033.13;;;13.34;53.23
72308;BME280;60257;42.638;23.376;2022-10-31T00:55:40;95032.59;;;13.29;53.45
72308;BME280;60257;42.638;23.376;2022-10-31T00:58:06;95030.13;;;13.24;53.48
72308;BME280;60257;42.638;23.376;2022-10-31T01:00:31;95025.00;;;13.10;53.85
72308;BME280;60257;42.638;23.376;2022-10-31T01:02:57;95034.06;;;13.10;53.98
72308;BME280;60257;42.638;23.376;2022-10-31T01:05:22;95036.28;;;13.05;54.12
72308;BME280;60257;42.638;23.376;2022-10-31T01:07:47;95022.75;;;12.84;54.84
72308;BME280;60257;42.638;23.376;2022-10-31T01:10:13;95036.06;;;12.82;55.27
72308;BME280;60257;42.638;23.376;2022-10-31T01:12:44;95044.22;;;12.79;55.29
72308;BME280;60257;42.638;23.376;2022-10-31T01:15:11;95038.63;;;12.75;55.56
72308;BME280;60257;42.638;23.376;2022-10-31T01:17:38;95036.47;;;12.68;55.84
72308;BME280;60257;42.638;23.376;2022-10-31T01:20:04;95035.03;;;12.59;55.90
72308;BME280;60257;42.638;23.376;2022-10-31T01:22:30;95037.31;;;12.57;55.75
72308;BME280;60257;42.638;23.376;2022-10-31T01:24:56;95053.16;;;12.48;56.32
72308;BME280;60257;42.638;23.376;2022-10-31T01:27:21;95056.50;;;12.41;56.60
72308;BME280;60257;42.638;23.376;2022-10-31T01:29:47;95058.59;;;12.32;56.58
72308;BME280;60257;42.638;23.376;2022-10-31T01:32:12;95061.81;;;12.34;56.68
72308;BME280;60257;42.638;23.376;2022-10-31T01:34:38;95055.50;;;12.33;56.55
72308;BME280;60257;42.638;23.376;2022-10-31T01:37:03;95057.56;;;12.37;56.92
72308;BME280;60257;42.638;23.376;2022-10-31T01:39:29;95054.28;;;12.31;56.84
72308;BME280;60257;42.638;23.376;2022-10-31T01:41:55;95065.03;;;12.36;56.81
72308;BME280;60257;42.638;23.376;2022-10-31T01:47:00;95058.47;;;12.41;57.11
72308;BME280;60257;42.638;23.376;2022-10-31T01:49:38;95064.69;;;12.38;56.99
72308;BME280;60257;42.638;23.376;2022-10-31T01:52:30;95070.63;;;12.40;57.03
72308;BME280;60257;42.638;23.376;2022-10-31T01:55:29;95061.34;;;12.44;57.01
72308;BME280;60257;42.638;23.376;2022-10-31T01:58:00;95053.09;;;12.44;56.85
72308;BME280;60257;42.638;23.376;2022-10-31T02:00:27;95052.97;;;12.41;57.10
72308;BME280;60257;42.638;23.376;2022-10-31T02:02:53;95055.84;;;12.44;57.12
72308;BME280;60257;42.638;23.376;2022-10-31T02:05:23;95049.72;;;12.51;57.10
72308;BME280;60257;42.638;23.376;2022-10-31T02:10:40;95048.13;;;12.50;57.15
72308;BME280;60257;42.638;23.376;2022-10-31T02:13:07;95058.66;;;12.48;57.24
72308;BME280;60257;42.638;23.376;2022-10-31T02:15:34;95050.00;;;12.46;57.54
72308;BME280;60257;42.638;23.376;2022-10-31T02:18:01;95048.47;;;12.48;57.59
72308;BME280;60257;42.638;23.376;2022-10-31T02:20:32;95052.28;;;12.44;57.61
72308;BME280;60257;42.638;23.376;2022-10-31T02:31:25;95073.69;;;12.50;57.88
72308;BME280;60257;42.638;23.376;2022-10-31T02:36:42;95067.88;;;12.40;58.04
72308;BME280;60257;42.638;23.376;2022-10-31T02:39:20;95068.66;;;12.40;57.95
72308;BME280;60257;42.638;23.376;2022-10-31T02:44:49;95082.53;;;12.44;58.38
72308;BME280;60257;42.638;23.376;2022-10-31T02:47:26;95090.06;;;12.47;58.03
72308;BME280;60257;42.638;23.376;2022-10-31T02:52:32;95084.03;;;12.41;58.91
72308;BME280;60257;42.638;23.376;2022-10-31T02:54:57;95078.88;;;12.40;58.63
72308;BME280;60257;42.638;23.376;2022-10-31T02:57:34;95083.69;;;12.43;58.80
72308;BME280;60257;42.638;23.376;2022-10-31T03:00:05;95084.22;;;12.48;58.86
72308;BME280;60257;42.638;23.376;2022-10-31T03:05:20;95061.72;;;12.30;59.17
72308;BME280;60257;42.638;23.376;2022-10-31T03:08:19;95088.94;;;12.48;59.17
72308;BME280;60257;42.638;23.376;2022-10-31T03:13:34;95083.81;;;12.46;59.96
72308;BME280;60257;42.638;23.376;2022-10-31T03:16:30;95075.78;;;12.41;60.10
72308;BME280;60257;42.638;23.376;2022-10-31T03:18:59;95079.06;;;12.47;59.56
72308;BME280;60257;42.638;23.376;2022-10-31T03:21:30;95079.44;;;12.45;59.17
72308;BME280;60257;42.638;23.376;2022-10-31T03:24:00;95088.13;;;12.47;59.21
72308;BME280;60257;42.638;23.376;2022-10-31T03:26:26;95087.22;;;12.43;59.38
72308;BME280;60257;42.638;23.376;2022-10-31T03:29:00;95092.63;;;12.40;59.35
72308;BME280;60257;42.638;23.376;2022-10-31T03:31:30;95089.53;;;12.41;59.42
72308;BME280;60257;42.638;23.376;2022-10-31T03:33:59;95093.00;;;12.38;60.05
72308;BME280;60257;42.638;23.376;2022-10-31T03:36:27;95104.31;;;12.37;60.06
72308;BME280;60257;42.638;23.376;2022-10-31T03:38:56;95099.97;;;12.36;60.51
72308;BME280;60257;42.638;23.376;2022-10-31T03:41:28;95100.44;;;12.38;60.62
72308;BME280;60257;42.638;23.376;2022-10-31T03:44:06;95103.19;;;12.38;60.15
72308;BME280;60257;42.638;23.376;2022-10-31T03:46:33;95105.34;;;12.32;60.52
72308;BME280;60257;42.638;23.376;2022-10-31T03:48:59;95105.81;;;12.34;60.60
72308;BME280;60257;42.638;23.376;2022-10-31T03:51:50;95106.28;;;12.24;60.52
72308;BME280;60257;42.638;23.376;2022-10-31T03:57:00;95120.28;;;12.19;60.41
72308;BME280;60257;42.638;23.376;2022-10-31T03:59:30;95113.75;;;12.11;60.82
72308;BME280;60257;42.638;23.376;2022-10-31T04:02:03;95108.03;;;12.04;61.15
72308;BME280;60257;42.638;23.376;2022-10-31T04:04:33;95103.34;;;11.92;61.19
72308;BME280;60257;42.638;23.376;2022-10-31T04:07:00;95119.50;;;11.94;61.83
72308;BME280;60257;42.638;23.376;2022-10-31T04:09:28;95117.91;;;11.81;61.87
72308;BME280;60257;42.638;23.376;2022-10-31T04:11:59;95117.78;;;11.77;61.53
72308;BME280;60257;42.638;23.376;2022-10-31T04:14:27;95124.78;;;11.75;61.58
72308;BME280;60257;42.638;23.376;2022-10-31T04:16:55;95125.69;;;11.79;61.56
72308;BME280;60257;42.638;23.376;2022-10-31T04:19:20;95119.13;;;11.71;61.73
72308;BME280;60257;42.638;23.376;2022-10-31T04:21:46;95131.88;;;11.76;61.80
72308;BME280;60257;42.638;23.376;2022-10-31T04:24:11;95125.09;;;11.73;62.42
72308;BME280;60257;42.638;23.376;2022-10-31T04:26:37;95122.34;;;11.73;62.71
72308;BME280;60257;42.638;23.376;2022-10-31T04:29:02;95128.78;;;11.77;62.57
72308;BME280;60257;42.638;23.376;2022-10-31T04:31:28;95133.13;;;11.78;62.98
72308;BME280;60257;42.638;23.376;2022-10-31T04:33:53;95131.97;;;11.79;62.75
72308;BME280;60257;42.638;23.376;2022-10-31T04:36:19;95122.13;;;11.78;62.83
72308;BME280;60257;42.638;23.376;2022-10-31T04:38:45;95126.97;;;11.81;63.04
72308;BME280;60257;42.638;23.376;2022-10-31T04:41:10;95121.22;;;11.74;63.61
72308;BME280;60257;42.638;23.376;2022-10-31T04:43:35;95137.13;;;11.81;63.40
72308;BME280;60257;42.638;23.376;2022-10-31T04:46:01;95132.44;;;11.81;63.85
72308;BME280;60257;42.638;23.376;2022-10-31T04:48:27;95132.91;;;11.83;63.54
72308;BME280;60257;42.638;23.376;2022-10-31T04:50:58;95144.34;;;11.85;63.43
72308;BME280;60257;42.638;23.376;2022-10-31T04:53:24;95147.91;;;11.86;63.48
72308;BME280;60257;42.638;23.376;2022-10-31T04:55:49;95144.81;;;11.87;63.29
72308;BME280;60257;42.638;23.376;2022-10-31T04:58:14;95149.63;;;11.90;62.95
72308;BME280;60257;42.638;23.376;2022-10-31T05:00:40;95147.22;;;11.89;62.98
72308;BME280;60257;42.638;23.376;2022-10-31T05:03:05;95144.47;;;11.77;63.13
72308;BME280;60257;42.638;23.376;2022-10-31T05:05:31;95150.78;;;11.89;63.02
72308;BME280;60257;42.638;23.376;2022-10-31T05:07:57;95139.66;;;11.98;62.57
72308;BME280;60257;42.638;23.376;2022-10-31T05:10:25;95147.66;;;12.03;62.45
72308;BME280;60257;42.638;23.376;2022-10-31T05:12:54;95147.09;;;12.10;62.45
72308;BME280;60257;42.638;23.376;2022-10-31T05:15:22;95156.38;;;12.05;62.53
72308;BME280;60257;42.638;23.376;2022-10-31T05:17:48;95149.28;;;12.04;63.07
72308;BME280;60257;42.638;23.376;2022-10-31T05:20:15;95155.00;;;12.11;62.37
72308;BME280;60257;42.638;23.376;2022-10-31T05:22:48;95160.97;;;12.13;62.73
72308;BME280;60257;42.638;23.376;2022-10-31T05:25:15;95131.06;;;11.87;62.58
72308;BME280;60257;42.638;23.376;2022-10-31T05:27:44;95171.41;;;12.08;62.62
72308;BME280;60257;42.638;23.376;2022-10-31T05:30:11;95167.25;;;12.02;62.45
72308;BME280;60257;42.638;23.376;2022-10-31T05:32:41;95161.66;;;11.98;62.48
72308;BME280;60257;42.638;23.376;2022-10-31T05:35:08;95174.03;;;12.04;62.45
72308;BME280;60257;42.638;23.376;2022-10-31T05:37:37;95166.22;;;11.94;62.29
72308;BME280;60257;42.638;23.376;2022-10-31T05:40:08;95174.81;;;11.92;62.64
72308;BME280;60257;42.638;23.376;2022-10-31T05:42:34;95174.34;;;11.78;62.84
72308;BME280;60257;42.638;23.376;2022-10-31T05:45:00;95174.53;;;11.73;62.87
72308;BME280;60257;42.638;23.376;2022-10-31T05:47:26;95186.13;;;11.79;62.99
72308;BME280;60257;42.638;23.376;2022-10-31T05:49:51;95178.94;;;11.74;63.01
72308;BME280;60257;42.638;23.376;2022-10-31T05:52:17;95178.75;;;11.71;63.33
72308;BME280;60257;42.638;23.376;2022-10-31T05:54:43;95185.53;;;11.73;63.47
72308;BME280;60257;42.638;23.376;2022-10-31T05:57:08;95187.81;;;11.71;63.67
72308;BME280;60257;42.638;23.376;2022-10-31T05:59:34;95186.56;;;11.69;63.57
72308;BME280;60257;42.638;23.376;2022-10-31T06:01:59;95187.47;;;11.73;63.47
72308;BME280;60257;42.638;23.376;2022-10-31T06:04:24;95181.28;;;11.64;63.56
72308;BME280;60257;42.638;23.376;2022-10-31T06:06:50;95197.44;;;11.65;63.99
72308;BME280;60257;42.638;23.376;2022-10-31T06:09:15;95197.75;;;11.64;63.92
72308;BME280;60257;42.638;23.376;2022-10-31T06:11:41;95203.66;;;11.74;63.66
72308;BME280;60257;42.638;23.376;2022-10-31T06:14:06;95204.75;;;11.73;63.63
72308;BME280;60257;42.638;23.376;2022-10-31T06:16:32;95206.63;;;11.81;63.54
72308;BME280;60257;42.638;23.376;2022-10-31T06:18:58;95202.28;;;11.80;63.42
72308;BME280;60257;42.638;23.376;2022-10-31T06:21:23;95195.06;;;11.76;63.25
72308;BME280;60257;42.638;23.376;2022-10-31T06:23:49;95205.16;;;11.84;63.16
72308;BME280;60257;42.638;23.376;2022-10-31T06:26:14;95218.56;;;11.98;63.14
72308;BME280;60257;42.638;23.376;2022-10-31T06:28:40;95233.69;;;12.04;63.25
72308;BME280;60257;42.638;23.376;2022-10-31T06:31:06;95228.06;;;12.00;62.91
72308;BME280;60257;42.638;23.376;2022-10-31T06:33:32;95227.28;;;12.12;62.69
72308;BME280;60257;42.638;23.376;2022-10-31T06:35:58;95231.41;;;12.18;62.53
72308;BME280;60257;42.638;23.376;2022-10-31T06:38:25;95235.19;;;12.25;62.64
72308;BME280;60257;42.638;23.376;2022-10-31T06:40:51;95242.53;;;12.33;62.39
72308;BME280;60257;42.638;23.376;2022-10-31T06:43:16;95235.06;;;12.34;62.47
72308;BME280;60257;42.638;23.376;2022-10-31T06:45:42;95239.44;;;12.35;62.69
72308;BME280;60257;42.638;23.376;2022-10-31T06:48:07;95243.69;;;12.45;62.24
72308;BME280;60257;42.638;23.376;2022-10-31T06:50:33;95236.78;;;12.51;62.25
72308;BME280;60257;42.638;23.376;2022-10-31T06:52:58;95233.22;;;12.62;61.99
72308;BME280;60257;42.638;23.376;2022-10-31T06:55:25;95240.78;;;12.65;61.84
72308;BME280;60257;42.638;23.376;2022-10-31T06:57:56;95242.50;;;12.70;61.80
72308;BME280;60257;42.638;23.376;2022-10-31T07:00:22;95229.31;;;12.76;61.54
72308;BME280;60257;42.638;23.376;2022-10-31T07:03:06;95236.38;;;12.89;61.44
72308;BME280;60257;42.638;23.376;2022-10-31T07:05:32;95233.50;;;12.97;61.10
72308;BME280;60257;42.638;23.376;2022-10-31T07:08:06;95233.59;;;13.01;61.13
72308;BME280;60257;42.638;23.376;2022-10-31T07:10:34;95233.81;;;13.08;61.06
72308;BME280;60257;42.638;23.376;2022-10-31T07:13:05;95245.63;;;13.21;60.74
72308;BME280;60257;42.638;23.376;2022-10-31T07:15:36;95239.63;;;13.31;60.63
72308;BME280;60257;42.638;23.376;2022-10-31T07:18:03;95228.47;;;13.39;60.52
72308;BME280;60257;42.638;23.376;2022-10-31T07:20:30;95222.97;;;13.39;60.09
72308;BME280;60257;42.638;23.376;2022-10-31T07:22:56;95228.41;;;13.52;60.06
72308;BME280;60257;42.638;23.376;2022-10-31T07:25:22;95222.72;;;13.60;59.88
72308;BME280;60257;42.638;23.376;2022-10-31T07:27:48;95218.66;;;13.70;59.90
72308;BME280;60257;42.638;23.376;2022-10-31T07:30:14;95214.84;;;13.74;59.48
72308;BME280;60257;42.638;23.376;2022-10-31T07:32:47;95207.81;;;13.77;59.73
72308;BME280;60257;42.638;23.376;2022-10-31T07:35:15;95208.34;;;13.82;59.46
72308;BME280;60257;42.638;23.376;2022-10-31T07:37:42;95208.88;;;13.88;59.71
72308;BME280;60257;42.638;23.376;2022-10-31T07:40:08;95211.81;;;13.95;59.42
72308;BME280;60257;42.638;23.376;2022-10-31T07:42:38;95210.78;;;14.00;59.57
72308;BME280;60257;42.638;23.376;2022-10-31T07:45:05;95215.56;;;14.03;59.29
72308;BME280;60257;42.638;23.376;2022-10-31T07:47:48;95217.91;;;14.16;58.73
72308;BME280;60257;42.638;23.376;2022-10-31T07:50:24;95217.09;;;14.16;58.57
72308;BME280;60257;42.638;23.376;2022-10-31T07:53:03;95215.22;;;14.20;58.45
72308;BME280;60257;42.638;23.376;2022-10-31T07:55:29;95217.97;;;14.20;58.66
72308;BME280;60257;42.638;23.376;2022-10-31T07:58:10;95217.97;;;14.20;58.73
72308;BME280;60257;42.638;23.376;2022-10-31T08:00:36;95227.06;;;14.20;58.58
72308;BME280;60257;42.638;23.376;2022-10-31T08:03:03;95227.41;;;14.19;58.69
72308;BME280;60257;42.638;23.376;2022-10-31T08:05:30;95215.38;;;14.27;58.66
72308;BME280;60257;42.638;23.376;2022-10-31T08:07:56;95217.72;;;14.41;58.49
72308;BME280;60257;42.638;23.376;2022-10-31T08:10:23;95215.56;;;14.50;58.13
72308;BME280;60257;42.638;23.376;2022-10-31T08:13:09;95214.88;;;14.53;58.08
72308;BME280;60257;42.638;23.376;2022-10-31T08:15:35;95211.19;;;14.64;57.68
72308;BME280;60257;42.638;23.376;2022-10-31T08:18:04;95215.19;;;14.67;57.04
72308;BME280;60257;42.638;23.376;2022-10-31T08:20:29;95218.56;;;14.76;56.92
72308;BME280;60257;42.638;23.376;2022-10-31T08:22:56;95219.00;;;14.78;57.15
72308;BME280;60257;42.638;23.376;2022-10-31T08:25:23;95226.19;;;14.83;56.94
72308;BME280;60257;42.638;23.376;2022-10-31T08:27:50;95226.34;;;14.90;56.85
72308;BME280;60257;42.638;23.376;2022-10-31T08:30:16;95220.03;;;14.89;56.90
72308;BME280;60257;42.638;23.376;2022-10-31T08:32:41;95214.31;;;14.98;56.59
72308;BME280;60257;42.638;23.376;2022-10-31T08:35:07;95215.34;;;15.09;56.73
72308;BME280;60257;42.638;23.376;2022-10-31T08:37:32;95221.06;;;15.20;56.12
72308;BME280;60257;42.638;23.376;2022-10-31T08:39:58;95214.84;;;15.23;56.16
72308;BME280;60257;42.638;23.376;2022-10-31T08:42:23;95210.53;;;15.25;55.97
72308;BME280;60257;42.638;23.376;2022-10-31T08:44:49;95208.09;;;15.39;55.29
72308;BME280;60257;42.638;23.376;2022-10-31T08:47:14;95210.19;;;15.46;55.33
72308;BME280;60257;42.638;23.376;2022-10-31T08:49:40;95206.66;;;15.49;54.98
72308;BME280;60257;42.638;23.376;2022-10-31T08:52:05;95201.69;;;15.55;54.78
72308;BME280;60257;42.638;23.376;2022-10-31T08:54:31;95197.56;;;15.49;55.00
72308;BME280;60257;42.638;23.376;2022-10-31T08:56:56;95204.97;;;15.60;54.37
72308;BME280;60257;42.638;23.376;2022-10-31T08:59:22;95205.22;;;15.74;54.62
72308;BME280;60257;42.638;23.376;2022-10-31T09:01:47;95201.50;;;15.86;54.68
72308;BME280;60257;42.638;23.376;2022-10-31T09:04:13;95205.47;;;15.89;54.48
72308;BME280;60257;42.638;23.376;2022-10-31T09:06:38;95203.34;;;16.01;53.74
72308;BME280;60257;42.638;23.376;2022-10-31T09:09:04;95206.38;;;16.15;53.33
72308;BME280;60257;42.638;23.376;2022-10-31T09:11:30;95199.22;;;16.14;53.32
72308;BME280;60257;42.638;23.376;2022-10-31T09:13:56;95196.53;;;16.18;53.33
72308;BME280;60257;42.638;23.376;2022-10-31T09:16:21;95197.06;;;16.27;53.08
72308;BME280;60257;42.638;23.376;2022-10-31T09:18:47;95203.09;;;16.33;53.24
72308;BME280;60257;42.638;23.376;2022-10-31T09:21:12;95200.19;;;16.48;52.60
72308;BME280;60257;42.638;23.376;2022-10-31T09:23:38;95193.97;;;16.55;52.40
72308;BME280;60257;42.638;23.376;2022-10-31T09:26:04;95196.72;;;16.55;52.68
72308;BME280;60257;42.638;23.376;2022-10-31T09:28:30;95193.19;;;16.58;52.71
72308;BME280;60257;42.638;23.376;2022-10-31T09:30:57;95171.72;;;16.48;52.22
72308;BME280;60257;42.638;23.376;2022-10-31T09:33:22;95187.75;;;16.62;52.17
72308;BME280;60257;42.638;23.376;2022-10-31T09:35:48;95196.75;;;16.81;51.91
72308;BME280;60257;42.638;23.376;2022-10-31T09:38:16;95192.53;;;16.91;51.48
72308;BME280;60257;42.638;23.376;2022-10-31T09:48:40;95193.13;;;17.37;50.39
72308;BME280;60257;42.638;23.376;2022-10-31T09:53:58;95187.72;;;17.48;49.75
72308;BME280;60257;42.638;23.376;2022-10-31T09:56:25;95187.75;;;17.51;49.56
72308;BME280;60257;42.638;23.376;2022-10-31T09:58:58;95193.78;;;17.57;49.61
72308;BME280;60257;42.638;23.376;2022-10-31T10:04:42;95171.63;;;17.60;49.19
72308;BME280;60257;42.638;23.376;2022-10-31T10:13:18;95154.22;;;18.00;47.80
72308;BME280;60257;42.638;23.376;2022-10-31T10:28:38;95129.47;;;18.29;46.69
72308;BME280;60257;42.638;23.376;2022-10-31T10:31:06;95139.94;;;18.46;46.29
72308;BME280;60257;42.638;23.376;2022-10-31T10:33:37;95145.47;;;18.46;46.20
72308;BME280;60257;42.638;23.376;2022-10-31T10:36:08;95136.41;;;18.49;45.39
72308;BME280;60257;42.638;23.376;2022-10-31T10:41:16;95128.19;;;18.63;45.60
72308;BME280;60257;42.638;23.376;2022-10-31T10:43:42;95124.28;;;18.75;45.37
72308;BME280;60257;42.638;23.376;2022-10-31T10:51:43;95120.38;;;18.90;44.20
72308;BME280;60257;42.638;23.376;2022-10-31T10:59:55;95126.75;;;18.87;43.93
72308;BME280;60257;42.638;23.376;2022-10-31T11:02:26;95115.28;;;18.96;43.76
72308;BME280;60257;42.638;23.376;2022-10-31T11:04:57;95118.06;;;18.99;43.79
72308;BME280;60257;42.638;23.376;2022-10-31T11:07:23;95110.56;;;19.10;43.58
72308;BME280;60257;42.638;23.376;2022-10-31T11:09:49;95111.41;;;19.21;43.41
72308;BME280;60257;42.638;23.376;2022-10-31T11:12:22;95107.88;;;19.32;42.92
72308;BME280;60257;42.638;23.376;2022-10-31T11:17:21;95111.09;;;19.41;42.87
72308;BME280;60257;42.638;23.376;2022-10-31T11:19:47;95102.81;;;19.55;42.74
72308;BME280;60257;42.638;23.376;2022-10-31T11:22:17;95100.03;;;19.58;42.06
72308;BME280;60257;42.638;23.376;2022-10-31T11:24:45;95097.66;;;19.75;41.56
72308;BME280;60257;42.638;23.376;2022-10-31T11:27:15;95084.56;;;19.72;41.28
72308;BME280;60257;42.638;23.376;2022-10-31T11:29:41;95083.38;;;19.73;41.52
72308;BME280;60257;42.638;23.376;2022-10-31T11:32:19;95089.31;;;19.64;41.74
72308;BME280;60257;42.638;23.376;2022-10-31T11:34:47;95082.16;;;19.56;41.61
72308;BME280;60257;42.638;23.376;2022-10-31T11:37:20;95085.75;;;19.74;41.49
72308;BME280;60257;42.638;23.376;2022-10-31T11:39:50;95078.19;;;19.78;41.37
72308;BME280;60257;42.638;23.376;2022-10-31T11:42:21;95079.78;;;19.72;41.43
72308;BME280;60257;42.638;23.376;2022-10-31T11:44:47;95078.59;;;19.70;41.72
72308;BME280;60257;42.638;23.376;2022-10-31T11:47:16;95076.22;;;19.72;41.60
72308;BME280;60257;42.638;23.376;2022-10-31T11:49:45;95073.44;;;19.72;41.75
72308;BME280;60257;42.638;23.376;2022-10-31T11:52:15;95072.63;;;19.85;41.52
72308;BME280;60257;42.638;23.376;2022-10-31T11:57:22;95061.91;;;19.91;43.03
72308;BME280;60257;42.638;23.376;2022-10-31T11:59:53;95062.31;;;19.93;40.95
72308;BME280;60257;42.638;23.376;2022-10-31T12:02:19;95059.53;;;19.89;41.44
72308;BME280;60257;42.638;23.376;2022-10-31T12:04:51;95055.94;;;19.82;40.95
72308;BME280;60257;42.638;23.376;2022-10-31T12:07:17;95061.53;;;19.89;41.37
72308;BME280;60257;42.638;23.376;2022-10-31T12:09:43;95065.09;;;20.07;40.75
72308;BME280;60257;42.638;23.376;2022-10-31T12:15:17;95063.50;;;19.95;40.96
72308;BME280;60257;42.638;23.376;2022-10-31T12:23:23;95055.94;;;20.21;40.74
72308;BME280;60257;42.638;23.376;2022-10-31T12:42:45;95047.88;;;20.80;39.37
72308;BME280;60257;42.638;23.376;2022-10-31T12:50:42;95048.75;;;20.48;39.64
72308;BME280;60257;42.638;23.376;2022-10-31T12:56:09;95052.72;;;20.29;39.93
72308;BME280;60257;42.638;23.376;2022-10-31T12:59:07;95059.53;;;20.18;39.96
72308;BME280;60257;42.638;23.376;2022-10-31T13:01:38;95057.13;;;20.09;40.19
72308;BME280;60257;42.638;23.376;2022-10-31T13:04:12;95053.16;;;20.07;40.29
72308;BME280;60257;42.638;23.376;2022-10-31T13:06:47;95057.94;;;19.99;40.46
72308;BME280;60257;42.638;23.376;2022-10-31T13:09:25;95064.69;;;19.98;40.88
72308;BME280;60257;42.638;23.376;2022-10-31T13:11:58;95059.53;;;20.04;40.49
72308;BME280;60257;42.638;23.376;2022-10-31T13:14:46;95057.13;;;20.09;40.52
72308;BME280;60257;42.638;23.376;2022-10-31T13:17:22;95057.16;;;20.13;40.32
72308;BME280;60257;42.638;23.376;2022-10-31T13:19:50;95061.09;;;20.15;40.40
72308;BME280;60257;42.638;23.376;2022-10-31T13:22:27;95058.72;;;20.28;40.15
72308;BME280;60257;42.638;23.376;2022-10-31T13:25:09;95054.72;;;20.29;40.27
72308;BME280;60257;42.638;23.376;2022-10-31T13:27:51;95056.31;;;20.23;40.22
72308;BME280;60257;42.638;23.376;2022-10-31T13:30:23;95055.53;;;20.36;40.27
72308;BME280;60257;42.638;23.376;2022-10-31T13:33:21;95053.94;;;20.32;39.94
72308;BME280;60257;42.638;23.376;2022-10-31T13:38:59;95059.91;;;20.27;40.05
72308;BME280;60257;42.638;23.376;2022-10-31T13:44:24;95065.88;;;20.25;40.34
72308;BME280;60257;42.638;23.376;2022-10-31T13:46:52;95065.88;;;20.22;40.23
72308;BME280;60257;42.638;23.376;2022-10-31T13:54:45;95061.91;;;20.09;40.52
72308;BME280;60257;42.638;23.376;2022-10-31T13:57:33;95055.94;;;20.03;41.07
72308;BME280;60257;42.638;23.376;2022-10-31T14:02:35;95066.69;;;19.97;40.79
72308;BME280;60257;42.638;23.376;2022-10-31T14:05:03;95059.91;;;19.91;40.83
72308;BME280;60257;42.638;23.376;2022-10-31T14:07:30;95061.50;;;19.85;41.17
72308;BME280;60257;42.638;23.376;2022-10-31T14:10:03;95059.13;;;19.84;41.24
72308;BME280;60257;42.638;23.376;2022-10-31T14:12:40;95063.09;;;19.86;41.11
72308;BME280;60257;42.638;23.376;2022-10-31T14:15:22;95061.09;;;19.83;41.25
72308;BME280;60257;42.638;23.376;2022-10-31T14:17:55;95064.69;;;19.80;41.27
72308;BME280;60257;42.638;23.376;2022-10-31T14:20:39;95070.66;;;19.79;41.43
72308;BME280;60257;42.638;23.376;2022-10-31T14:28:52;95065.47;;;19.63;41.72
72308;BME280;60257;42.638;23.376;2022-10-31T14:31:41;95069.81;;;19.60;41.80
72308;BME280;60257;42.638;23.376;2022-10-31T14:47:47;95062.53;;;19.20;42.60
72308;BME280;60257;42.638;23.376;2022-10-31T14:50:21;95066.13;;;19.25;42.45
72308;BME280;60257;42.638;23.376;2022-10-31T14:52:54;95066.50;;;19.16;43.11
72308;BME280;60257;42.638;23.376;2022-10-31T14:55:21;95066.44;;;19.05;43.20
72308;BME280;60257;42.638;23.376;2022-10-31T14:57:54;95062.88;;;19.01;43.14
72308;BME280;60257;42.638;23.376;2022-10-31T15:00:22;95068.44;;;19.01;43.13
72308;BME280;60257;42.638;23.376;2022-10-31T15:03:12;95068.03;;;18.96;43.42
72308;BME280;60257;42.638;23.376;2022-10-31T15:06:05;95071.94;;;18.84;43.74
72308;BME280;60257;42.638;23.376;2022-10-31T15:08:45;95074.69;;;18.77;43.98
72308;BME280;60257;42.638;23.376;2022-10-31T15:11:14;95068.66;;;18.68;44.33
72308;BME280;60257;42.638;23.376;2022-10-31T15:13:48;95079.31;;;18.59;44.16
72308;BME280;60257;42.638;23.376;2022-10-31T15:16:16;95081.34;;;18.58;43.89
72308;BME280;60257;42.638;23.376;2022-10-31T15:18:49;95084.81;;;18.52;45.58
72308;BME280;60257;42.638;23.376;2022-10-31T15:21:18;95078.41;;;18.44;44.24
72308;BME280;60257;42.638;23.376;2022-10-31T15:23:46;95086.75;;;18.40;44.27
72308;BME280;60257;42.638;23.376;2022-10-31T15:26:17;95078.75;;;18.35;44.06
72308;BME280;60257;42.638;23.376;2022-10-31T15:28:44;95093.84;;;18.34;44.76
72308;BME280;60257;42.638;23.376;2022-10-31T15:31:16;95095.78;;;18.30;49.02